Grampian, PA (16838)

2:17 PM EDT on April 29, 2017 (GMT -0400)
Twinoaks | | Change Station

Elev 1493 ft 40.99 °N, 78.53 °W | Updated 18 seconds ago

Rain
Rain
64.6 °F
Feels Like 64.6 °F
N
6.0
Wind Variable Wind from West

Today
High -- | Low -- °F
--% Chance of Precip.
Yesterday
High -- | Low -- °F
Precip. -- in
Pressure 30.15 in
Visibility 10.0 miles
Clouds Few 2500 ft
Scattered Clouds 3300 ft
Mostly Cloudy 5000 ft
Dew Point 60 °F
Humidity 86%
Rainfall 0.33 in
Snow Depth Not available.
6:14 AM 8:09 PM
Waxing Crescent, 15% visible
METAR KFIG 291754Z AUTO 26014G22KT 10SM -RA FEW025 SCT033 BKN050 21/16 A3015 RMK AO2 PK WND 27027/1700 RAB40 PRESRR SLP208 P0000 60000 T02060156 10217 20117 53026
Pressure 30.15 in
Visibility 10.0 miles
Clouds Few 2500 ft
Scattered Clouds 3300 ft
Mostly Cloudy 5000 ft
Dew Point 60 °F
Humidity 86%
Rainfall 0.33 in
Snow Depth Not available.
6:14 AM 8:09 PM
Waxing Crescent, 15% visible
METAR KFIG 291754Z AUTO 26014G22KT 10SM -RA FEW025 SCT033 BKN050 21/16 A3015 RMK AO2 PK WND 27027/1700 RAB40 PRESRR SLP208 P0000 60000 T02060156 10217 20117 53026

Get Severe Weather Alerts

Thanks for signing up!

Be on the lookout for a verification email in your inbox.

You'll start receiving the daily forecast at 8 AM.

×

10-Day Weather Forecast

Almanac

Astronomy

Apr. 29, 2017 Rise Set
Actual Time
Civil Twilight
Nautical Twilight
Astronomical Twilight
Moon
Length of Visible Light
Length of Day
Tomorrow will be .
, % of the Moon is Illuminated

Today's Extremes

State Highs State Lows

Community

WunderPhotos

WunderBlog® & News

Nearby

Air Quality

  Air Quality AQ Index Pollutant
Not available.

Snow Depth

Station Depth Elevation

Earthquake Activity

City Distance Mag. Time & Date
Minimum magnitude displayed is 2.5.

Coastal Water Temperatures

Place Temperature

Stations

Nearby Weather Stations

Station Location Temp. Windchill Dew Point Humidity Wind Precip. Elev Updated Type
                   

Watches & Warnings

There are currently no watches in effect.